createdAt,value
2023-04-18T00:02:07.389Z,85.74
2023-04-18T00:05:48.167Z,85.96
2023-04-18T00:09:20.859Z,85.75
2023-04-18T00:12:58.923Z,85.95
2023-04-18T00:16:38.398Z,85.87
2023-04-18T00:20:14.323Z,85.93
2023-04-18T00:23:52.268Z,86.13
2023-04-18T00:27:29.515Z,86.02
2023-04-18T00:31:06.837Z,86.03
2023-04-18T00:34:45.350Z,86.22
2023-04-18T00:38:22.284Z,86.00
2023-04-18T00:42:01.325Z,86.25
2023-04-18T00:45:37.674Z,86.31
2023-04-18T00:49:15.762Z,86.62
2023-04-18T00:52:54.322Z,86.61
2023-04-18T00:56:33.008Z,86.87
2023-04-18T01:00:10.061Z,86.66
2023-04-18T01:03:46.584Z,86.59
2023-04-18T01:07:24.148Z,86.95
2023-04-18T01:11:01.987Z,87.09
2023-04-18T01:14:43.074Z,86.90
2023-04-18T01:18:18.102Z,87.11
2023-04-18T01:21:54.521Z,86.88
2023-04-18T01:25:33.717Z,86.97
2023-04-18T01:29:10.352Z,87.30
2023-04-18T01:32:47.799Z,87.48
2023-04-18T01:36:27.018Z,87.35
2023-04-18T01:40:03.776Z,87.65
2023-04-18T01:43:40.845Z,87.65
2023-04-18T01:47:18.499Z,87.56
2023-04-18T01:50:58.137Z,87.73
2023-04-18T01:54:33.692Z,87.88
2023-04-18T02:01:49.197Z,87.91
2023-04-18T02:05:27.754Z,88.24
2023-04-18T02:09:04.679Z,88.10
2023-04-18T02:12:42.009Z,87.99
2023-04-18T02:16:20.008Z,88.00
2023-04-18T02:19:57.416Z,87.80
2023-04-18T02:23:35.184Z,88.02
2023-04-18T02:27:13.951Z,88.23
2023-04-18T02:30:50.601Z,87.77
2023-04-18T02:34:28.023Z,88.20
2023-04-18T02:38:05.896Z,88.03
2023-04-18T02:41:43.363Z,88.20
2023-04-18T02:45:21.206Z,88.09
2023-04-18T02:48:58.640Z,88.35
2023-04-18T02:52:36.857Z,88.13
2023-04-18T02:56:17.356Z,88.26
2023-04-18T02:59:51.950Z,88.30
2023-04-18T03:03:29.646Z,88.09
2023-04-18T03:07:07.425Z,88.26
2023-04-18T03:10:45.070Z,88.02
2023-04-18T03:14:22.349Z,87.85
2023-04-18T03:18:00.409Z,87.93
2023-04-18T03:21:37.773Z,88.16
2023-04-18T03:25:16.119Z,88.25
2023-04-18T03:28:53.323Z,87.96
2023-04-18T03:32:34.311Z,88.13
2023-04-18T03:36:09.272Z,88.32
2023-04-18T03:39:46.401Z,88.13
2023-04-18T03:43:23.954Z,88.50
2023-04-18T03:47:01.713Z,88.02
2023-04-18T03:50:39.511Z,88.09
2023-04-18T03:54:17.503Z,88.10
2023-04-18T03:57:55.086Z,88.22
2023-04-18T04:01:32.786Z,88.68
2023-04-18T04:05:10.092Z,88.38
2023-04-18T04:08:47.697Z,88.80
2023-04-18T04:12:25.959Z,89.27
2023-04-18T04:16:03.898Z,89.05
2023-04-18T04:19:40.724Z,88.89
2023-04-18T04:23:18.850Z,89.03
2023-04-18T04:26:56.385Z,89.43
2023-04-18T04:30:33.789Z,89.53
2023-04-18T04:34:12.261Z,89.22
2023-04-18T04:37:49.774Z,89.54
2023-04-18T04:41:27.897Z,89.73
2023-04-18T04:45:05.199Z,90.18
2023-04-18T04:48:42.561Z,90.10
2023-04-18T04:52:20.040Z,90.24
2023-04-18T04:55:58.676Z,91.07
2023-04-18T04:59:35.748Z,91.50
2023-04-18T05:03:13.165Z,92.37
2023-04-18T05:06:51.130Z,92.89
2023-04-18T05:10:28.320Z,92.92
2023-04-18T05:14:06.253Z,92.88
2023-04-18T05:17:43.708Z,92.15
2023-04-18T05:21:21.513Z,90.93
2023-04-18T05:24:58.753Z,90.40
2023-04-18T05:28:36.697Z,89.61
2023-04-18T05:32:19.123Z,88.83
2023-04-18T05:35:52.815Z,86.96
2023-04-18T05:39:29.962Z,86.68
2023-04-18T05:43:06.977Z,86.09
2023-04-18T05:46:45.996Z,84.55
2023-04-18T05:50:23.432Z,83.72
2023-04-18T05:54:00.626Z,83.16
2023-04-18T05:57:38.446Z,82.61
2023-04-18T06:01:16.461Z,81.71
2023-04-18T06:04:54.257Z,80.68
2023-04-18T06:08:31.209Z,79.39
2023-04-18T06:12:09.013Z,78.21
2023-04-18T06:15:46.555Z,77.35
2023-04-18T06:19:24.127Z,76.65
2023-04-18T06:23:01.771Z,76.59
2023-04-18T06:26:39.989Z,74.63
2023-04-18T06:30:17.202Z,74.47
2023-04-18T06:33:55.117Z,73.12
2023-04-18T06:37:32.477Z,72.00
2023-04-18T06:41:10.530Z,70.92
2023-04-18T06:44:47.927Z,71.10
2023-04-18T06:48:25.560Z,69.71
2023-04-18T06:52:03.195Z,69.62
2023-04-18T06:55:41.250Z,68.97
2023-04-18T06:59:19.609Z,68.64
2023-04-18T07:02:56.911Z,67.80
2023-04-18T07:06:35.096Z,67.16
2023-04-18T07:10:12.131Z,66.26
2023-04-18T07:13:49.645Z,65.88
2023-04-18T07:17:26.926Z,65.07
2023-04-18T07:21:43.265Z,64.96
2023-04-18T07:24:42.598Z,63.09
2023-04-18T07:28:39.037Z,63.29
2023-04-18T07:31:58.176Z,63.30
2023-04-18T07:35:36.334Z,62.70
2023-04-18T07:39:13.258Z,61.22
2023-04-18T07:42:50.829Z,62.01
2023-04-18T07:46:29.140Z,61.46
2023-04-18T07:50:06.993Z,58.97
2023-04-18T07:53:46.171Z,59.65
2023-04-18T07:57:21.500Z,59.34
2023-04-18T08:00:59.483Z,58.88
2023-04-18T08:04:37.023Z,60.10
2023-04-18T08:08:14.576Z,60.09
2023-04-18T08:11:52.097Z,60.15
2023-04-18T08:15:32.973Z,59.74
2023-04-18T08:19:07.684Z,60.30
2023-04-18T08:23:02.347Z,59.72
2023-04-18T08:26:22.835Z,58.82
2023-04-18T08:30:02.090Z,57.65
2023-04-18T08:33:38.288Z,57.12
2023-04-18T08:37:16.102Z,57.91
2023-04-18T08:40:53.516Z,57.56
2023-04-18T08:44:51.968Z,57.29
2023-04-18T08:48:16.369Z,57.46
2023-04-18T08:51:54.278Z,57.64
2023-04-18T08:55:24.504Z,57.49
2023-04-18T08:59:02.932Z,58.37
2023-04-18T09:02:47.271Z,59.32
2023-04-18T09:06:19.564Z,59.33
2023-04-18T09:09:57.406Z,59.97
2023-04-18T09:13:40.088Z,60.91
2023-04-18T09:17:13.380Z,60.94
2023-04-18T09:20:50.004Z,61.37
2023-04-18T09:24:27.285Z,62.27
2023-04-18T09:28:23.316Z,62.15
2023-04-18T09:32:01.523Z,61.80
2023-04-18T09:35:25.793Z,61.31
2023-04-18T09:38:57.365Z,61.74
2023-04-18T09:42:53.898Z,61.64
2023-04-18T09:46:12.733Z,61.75
2023-04-18T09:49:50.366Z,62.05
2023-04-18T09:53:29.356Z,61.68
2023-04-18T09:57:13.814Z,61.68
2023-04-18T10:00:44.969Z,62.67
2023-04-18T10:04:20.939Z,62.76
2023-04-18T10:07:59.617Z,62.90
2023-04-18T10:11:36.595Z,63.78
2023-04-18T10:15:16.053Z,63.76
2023-04-18T10:18:51.894Z,63.89
2023-04-18T10:22:28.884Z,63.56
2023-04-18T10:26:11.090Z,63.85
2023-04-18T10:29:52.080Z,64.00
2023-04-18T10:33:42.804Z,63.53
2023-04-18T10:37:06.498Z,64.22
2023-04-18T10:40:37.381Z,63.90
2023-04-18T10:44:23.218Z,64.05
2023-04-18T10:48:31.419Z,64.14
2023-04-18T10:51:32.594Z,63.82
2023-04-18T10:55:20.503Z,63.05
2023-04-18T10:58:52.394Z,63.42
2023-04-18T11:02:30.479Z,62.82
2023-04-18T11:06:03.988Z,62.44
2023-04-18T11:09:41.163Z,62.25
2023-04-18T11:13:19.124Z,62.56
2023-04-18T11:16:56.369Z,62.46
2023-04-18T11:20:46.339Z,62.56
2023-04-18T11:24:12.272Z,61.98
2023-04-18T11:27:55.227Z,61.82
2023-04-18T11:31:27.187Z,62.21
2023-04-18T11:35:05.760Z,62.17
2023-04-18T11:38:42.507Z,61.65
2023-04-18T11:42:20.774Z,61.19
2023-04-18T11:45:59.944Z,61.35
2023-04-18T11:49:35.477Z,61.14
2023-04-18T11:53:13.061Z,60.34
2023-04-18T11:56:50.958Z,60.78
2023-04-18T12:00:34.473Z,61.20
2023-04-18T12:04:08.597Z,60.56
2023-04-18T12:07:48.068Z,61.40
2023-04-18T12:11:21.771Z,61.15
2023-04-18T12:15:08.426Z,61.35
2023-04-18T12:18:37.059Z,61.58
2023-04-18T12:22:16.798Z,62.06
2023-04-18T12:26:00.158Z,61.82
2023-04-18T12:29:30.370Z,60.96
2023-04-18T12:33:09.420Z,61.50
2023-04-18T12:36:46.898Z,60.64
2023-04-18T12:40:24.601Z,60.58
2023-04-18T12:44:00.686Z,60.28
2023-04-18T12:47:39.700Z,59.86
2023-04-18T12:51:16.196Z,59.85
2023-04-18T12:54:53.695Z,59.81
2023-04-18T12:58:31.672Z,59.90
2023-04-18T13:02:09.446Z,59.95
2023-04-18T13:05:53.161Z,59.81
2023-04-18T13:09:24.504Z,59.86
2023-04-18T13:13:02.001Z,59.35
2023-04-18T13:16:41.635Z,58.97
2023-04-18T13:20:17.221Z,59.07
2023-04-18T13:23:55.079Z,59.27
2023-04-18T13:27:32.935Z,59.44
2023-04-18T13:31:10.592Z,59.16
2023-04-18T13:34:48.916Z,59.78
2023-04-18T13:38:27.727Z,59.90
2023-04-18T13:42:04.560Z,60.06
2023-04-18T13:45:41.712Z,60.03
2023-04-18T13:49:19.212Z,60.47
2023-04-18T13:52:56.720Z,60.41
2023-04-18T13:56:34.492Z,59.90
2023-04-18T14:00:14.509Z,60.30
2023-04-18T14:03:49.805Z,60.27
2023-04-18T14:07:27.585Z,60.26
2023-04-18T14:11:04.899Z,60.26
2023-04-18T14:19:13.280Z,59.95
2023-04-18T14:22:52.852Z,59.68
2023-04-18T14:26:28.204Z,59.34
2023-04-18T14:30:09.064Z,58.76
2023-04-18T14:33:43.389Z,59.32
2023-04-18T14:37:21.419Z,59.08
2023-04-18T14:40:59.206Z,59.53
2023-04-18T14:44:36.465Z,59.48
2023-04-18T14:48:33.012Z,59.91
2023-04-18T14:51:51.706Z,60.19
2023-04-18T14:55:29.701Z,60.45
2023-04-18T14:59:07.318Z,60.97
2023-04-18T15:02:45.051Z,61.16
2023-04-18T15:06:23.322Z,61.44
2023-04-18T15:10:00.504Z,61.83
2023-04-18T15:13:38.142Z,62.05
2023-04-18T15:17:15.898Z,62.08
2023-04-18T15:20:54.031Z,62.53
2023-04-18T15:24:31.374Z,62.74
2023-04-18T15:28:08.627Z,62.72
2023-04-18T15:31:47.210Z,63.14
2023-04-18T15:35:24.072Z,63.48
2023-04-18T15:39:06.952Z,63.89
2023-04-18T15:42:39.519Z,63.99
2023-04-18T15:46:17.501Z,64.30
2023-04-18T15:49:54.621Z,64.82
2023-04-18T15:53:32.718Z,65.03
2023-04-18T15:57:11.368Z,65.48
2023-04-18T16:01:07.272Z,65.56
2023-04-18T16:04:25.612Z,66.12
2023-04-18T16:08:03.312Z,66.26
2023-04-18T16:11:40.891Z,66.72
2023-04-18T16:15:18.803Z,66.76
2023-04-18T16:18:56.222Z,66.98
2023-04-18T16:22:34.105Z,67.33
2023-04-18T16:26:11.548Z,67.39
2023-04-18T16:29:49.350Z,67.68
2023-04-18T16:33:26.948Z,68.03
2023-04-18T16:37:04.476Z,68.48
2023-04-18T16:40:42.389Z,68.71
2023-04-18T16:44:20.076Z,69.16
2023-04-18T16:47:57.898Z,69.31
2023-04-18T16:51:37.289Z,69.42
2023-04-18T16:55:12.886Z,69.36
2023-04-18T16:58:50.765Z,69.56
2023-04-18T17:02:28.713Z,69.06
2023-04-18T17:06:06.366Z,68.92
2023-04-18T17:09:43.531Z,68.90
2023-04-18T17:13:27.076Z,68.83
2023-04-18T17:16:58.776Z,68.33
2023-04-18T17:20:37.277Z,68.64
2023-04-18T17:24:18.764Z,68.40
2023-04-18T17:27:52.173Z,68.37
2023-04-18T17:31:29.850Z,68.37
2023-04-18T17:35:08.378Z,68.43
2023-04-18T17:38:49.109Z,68.32
2023-04-18T17:42:22.830Z,68.39
2023-04-18T17:46:01.687Z,68.36
2023-04-18T17:49:39.034Z,68.26
2023-04-18T17:53:15.523Z,68.13
2023-04-18T17:56:53.387Z,68.00
2023-04-18T18:00:31.432Z,67.80
2023-04-18T18:04:08.910Z,67.45
2023-04-18T18:07:48.147Z,67.35
2023-04-18T18:11:24.307Z,67.08
2023-04-18T18:15:02.482Z,66.96
2023-04-18T18:18:39.961Z,67.33
2023-04-18T18:22:28.490Z,67.11
2023-04-18T18:25:55.020Z,67.00
2023-04-18T18:29:32.950Z,67.38
2023-04-18T18:33:10.331Z,67.80
2023-04-18T18:36:48.118Z,67.73
2023-04-18T18:40:25.653Z,68.47
2023-04-18T18:44:03.629Z,68.78
2023-04-18T18:47:41.467Z,69.29
2023-04-18T18:51:19.468Z,69.16
2023-04-18T18:54:56.470Z,69.70
2023-04-18T18:58:33.939Z,69.97
2023-04-18T19:02:12.067Z,69.90
2023-04-18T19:05:49.502Z,70.23
2023-04-18T19:09:27.653Z,70.34
2023-04-18T19:13:05.107Z,70.73
2023-04-18T19:16:42.617Z,70.64
2023-04-18T19:20:20.247Z,70.67
2023-04-18T19:23:57.656Z,71.06
2023-04-18T19:27:36.265Z,70.78
2023-04-18T19:31:13.133Z,70.92
2023-04-18T19:34:51.868Z,70.93
2023-04-18T19:38:28.495Z,71.25
2023-04-18T19:42:06.604Z,71.87
2023-04-18T19:45:43.898Z,71.70
2023-04-18T19:49:22.582Z,71.67
2023-04-18T19:52:59.191Z,72.22
2023-04-18T19:56:36.718Z,72.28
2023-04-18T20:00:16.190Z,72.83
2023-04-18T20:03:52.781Z,72.93
2023-04-18T20:07:30.862Z,73.10
2023-04-18T20:11:10.006Z,73.69
2023-04-18T20:14:45.604Z,73.63
2023-04-18T20:18:24.291Z,73.74
2023-04-18T20:22:01.323Z,74.11
2023-04-18T20:25:38.186Z,74.18
2023-04-18T20:29:16.558Z,74.49
2023-04-18T20:32:54.079Z,74.66
2023-04-18T20:36:31.449Z,75.09
2023-04-18T20:40:09.987Z,74.98
2023-04-18T20:43:47.125Z,75.48
2023-04-18T20:47:24.585Z,75.58
2023-04-18T20:51:02.231Z,75.79
2023-04-18T20:54:39.820Z,76.02
2023-04-18T20:58:17.453Z,76.56
2023-04-18T21:01:55.217Z,76.81
2023-04-18T21:05:33.127Z,77.00
2023-04-18T21:09:10.702Z,77.31
2023-04-18T21:12:48.218Z,77.08
2023-04-18T21:16:26.123Z,77.49
2023-04-18T21:20:03.767Z,77.85
2023-04-18T21:23:44.402Z,77.87
2023-04-18T21:27:18.805Z,77.96
2023-04-18T21:30:56.455Z,77.92
2023-04-18T21:34:34.098Z,78.16
2023-04-18T21:38:11.779Z,78.60
2023-04-18T21:41:49.388Z,78.33
2023-04-18T21:45:27.059Z,78.50
2023-04-18T21:49:04.656Z,78.72
2023-04-18T21:52:42.245Z,78.54
2023-04-18T21:56:20.246Z,78.93
2023-04-18T21:59:58.016Z,79.16
2023-04-18T22:03:37.066Z,79.23
2023-04-18T22:07:13.595Z,79.15
2023-04-18T22:10:50.730Z,79.34
2023-04-18T22:14:28.387Z,79.40
2023-04-18T22:18:08.987Z,79.31
2023-04-18T22:21:44.129Z,79.10
2023-04-18T22:25:21.158Z,79.14
2023-04-18T22:28:59.324Z,79.35
2023-04-18T22:32:55.659Z,79.10
2023-04-18T22:36:14.787Z,79.29
2023-04-18T22:39:52.065Z,79.17
2023-04-18T22:43:31.047Z,79.32
2023-04-18T22:47:08.393Z,79.18
2023-04-18T22:50:46.397Z,79.41
2023-04-18T22:54:22.923Z,79.88
2023-04-18T22:58:01.041Z,79.93
2023-04-18T23:01:38.206Z,79.52
2023-04-18T23:05:16.258Z,79.81
2023-04-18T23:08:53.268Z,79.80
2023-04-18T23:12:31.655Z,80.21
2023-04-18T23:16:09.132Z,80.37
2023-04-18T23:19:46.607Z,80.26
2023-04-18T23:23:24.198Z,80.16
2023-04-18T23:27:02.334Z,80.07
2023-04-18T23:30:39.616Z,80.24
2023-04-18T23:34:17.299Z,80.52
2023-04-18T23:37:54.836Z,80.07
2023-04-18T23:41:32.651Z,80.20
2023-04-18T23:45:10.870Z,80.33
2023-04-18T23:48:47.990Z,80.01
2023-04-18T23:52:25.660Z,80.18
2023-04-18T23:56:03.330Z,79.92
2023-04-18T23:59:41.056Z,79.71
